NCAR-RAP Real-Time Weather Data

Output produced by METARs form (24 April 2018  16:14 UTC)
found at http://weather.rap.ucar.edu/surface/
 
RJFR 241600Z 33006KT 290V010 9999 FEW010 SCT020 BKN030 14/11 Q1006
RJFR 241500Z 34007KT 290V020 9999 FEW010 SCT015 BKN030 14/11 Q1006
RJFR 241400Z 30012KT 9999 FEW010 BKN020 BKN035 15/12 Q1006
RJFR 241300Z 32010KT 300V360 9999 FEW010 SCT015 BKN035 15/12 Q1006
RJFR 241200Z 35011KT 9999 -SHRA FEW005 SCT015 BKN035 15/12 Q1006
RJFR 241100Z 35016KT 9999 -SHRA FEW005 SCT020 BKN030 15/12 Q1006
RJFR 241039Z 36017KT 9999 SHRA FEW005 BKN015 BKN025 15/13 Q1005 RMK 1ST005 5CU015 7CU025 A2970
RJFR 241000Z 36015KT 9999 -SHRA FEW005 BKN013 BKN020 15/13 Q1005
RJFR 240916Z 36009KT 8000 -SHRA FEW005 SCT009 BKN012 16/14 Q1004 RMK 1ST005 4ST009 7CU012 A2967
RJFR 240900Z 31005KT 280V010 5000 SHRA FEW005 BKN009 BKN012 16/14 Q1004
RJFR 240832Z 29010KT 4500 SHRA FEW005 SCT010 BKN015 16/14 Q1004 RMK 1ST005 4CU010 6CU015 A2966
RJFR 240827Z 30011KT 4500 -SHRA FEW005 SCT010 BKN018 16/14 Q1004 RMK 1ST005 3CU010 6CU018 A2966
RJFR 240800Z 29012KT 9999 -SHRA FEW005 SCT012 BKN030 16/14 Q1004
RJFR 240700Z 31010KT 9999 -SHRA FEW005 SCT015 BKN030 17/15 Q1004
RJFR 240600Z 30016KT 6000 -RA FEW003 SCT008 BKN025 18/16 Q1004
RJFR 240540Z 33006KT 5000 R18/1300VP1800U RA FEW003 SCT008 BKN025 19/17 Q1004 RMK 1ST003 3ST008 7SC025 A2965
RJFR 240531Z 32007KT 2000 R18/1300VP1800D RA FEW003 BKN010 OVC040 18/17 Q1004 RMK 1ST003 5ST010 8NS040 A2965
RJFR 240530Z 32007KT 2000 R18/1300VP1800D -RA FEW003 BKN010 OVC040 18/17 Q1004 RMK 1ST003 5ST010 8NS040 A2965
RJFR 240519Z VRB02KT 3500 R18/1100VP1800U -RA FEW005 BKN015 OVC040 18/17 Q1003 RMK 1ST005 5ST015 8NS040 A2964
RJFR 240512Z VRB02KT 2000 R18/1100VP1800D RA FEW007 SCT015 OVC040 18/17 Q1003 RMK 1ST007 4ST015 8NS040 A2964
RJFR 240503Z VRB03KT 2500 R18/1700U RA FEW007 SCT015 OVC040 18/16 Q1003 RMK 1ST007 4ST015 8NS040 A2964
RJFR 240500Z VRB03KT 2000 R18/1200VP1800U RA FEW007 SCT015 OVC040 18/17 Q1004
RJFR 240417Z VRB02KT 3500 R18/1400VP1800U -RA FEW005 SCT030 OVC045 18/17 Q1004 RMK 1ST005 4SC030 8NS045 A2966
RJFR 240411Z VRB02KT 2500 R18/1300VP1800D RA FEW005 SCT025 OVC050 18/17 Q1004 RMK 1ST005 4SC025 8NS050 A2966
RJFR 240400Z 13003KT 090V180 2500 RA FEW005 SCT025 OVC050 17/16 Q1004
RJFR 240303Z VRB02KT 3500 R18/1800D RA FEW005 BKN035 OVC070 17/16 Q1005 RMK 1ST005 5CU035 8NS070 A2969
RJFR 240300Z VRB03KT 3500 -RA FEW005 BKN035 OVC070 17/16 Q1005
RJFR 240242Z VRB04KT 4000 -RA FEW001 SCT030 OVC070 17/16 Q1005 RMK 1ST001 4SC030 8NS070 A2969
RJFR 240230Z VRB05KT 3500 RA FEW001 BKN030 OVC050 17/16 Q1005 RMK 1ST001 5ST030 8NS050 A2969
RJFR 240207Z VRB05KT 2500 R18/1600U RA FEW001 BKN030 OVC050 17/16 Q1005 RMK 1ST001 5ST030 8NS050 A2970
RJFR 240200Z VRB04KT 2000 R18/1700D RA FEW001 BKN030 OVC050 17/16 Q1006
RJFR 240117Z VRB03KT 4000 RA FEW004 BKN050 OVC080 17/16 Q1006 RMK 1ST004 5SC050 8NS080 A2973
RJFR 240100Z VRB05KT 4000 -RA FEW005 BKN050 OVC080 17/16 Q1006
RJFR 240046Z VRB07KT 3500 -RA FEW004 SCT030 BKN050 17/16 Q1006 RMK 1ST004 3ST030 6SC050 A2972
RJFR 240034Z 09007KT 360V160 3500 RA FEW004 BKN045 OVC090 17/16 Q1006 RMK 1ST004 5SC045 8NS090 A2972
RJFR 240022Z VRB06KT 4500 -RA FEW004 BKN050 OVC090 17/16 Q1006 RMK 1ST004 5SC050 8AS090 A2972
RJFR 240000Z VRB07KT 6000 -RA FEW004 SCT045 OVC080 17/16 Q1006
RJFR 232332Z VRB06KT 4000 RA FEW004 SCT045 OVC070 17/16 Q1007 RMK 1ST004 4SC045 8NS070 A2974
RJFR 232326Z VRB06KT 4500 -RA FEW004 SCT045 OVC070 17/16 Q1007 RMK 1ST004 4SC045 8NS070 A2974
RJFR 232315Z VRB06KT 6000 RA FEW004 SCT045 OVC070 17/16 Q1007 RMK 1ST004 4SC045 8NS070 A2974
RJFR 232300Z VRB04KT 6000 -RA FEW004 SCT030 BKN060 17/16 Q1007
RJFR 232223Z 04005KT 7000 -RA FEW004 SCT030 BKN050 17/15 Q1007 RMK 1ST004 3CU030 7SC050 A2976
RJFR 232200Z VRB02KT 6000 R18/1400VP1800U RA FEW005 SCT030 BKN050 17/15 Q1008
RJFR 232150Z VRB01KT 5000 RA FEW008 SCT040 BKN050 17/15 Q1008 RMK 1ST008 4SC040 6SC050 A2977
RJFR 232100Z 12004KT 030V170 9999 -RA FEW008 SCT050 BKN120 17/15 Q1008
RJFR 232000Z VRB05KT 9999 -RA FEW010 BKN050 BKN100 17/15 Q1008
RJFR 231900Z VRB03KT 9999 -RA FEW010 SCT050 BKN090 18/16 Q1009
RJFR 231800Z 08006KT 050V190 9999 -RA FEW010 SCT050 BKN100 17/15 Q1009
RJFR 231700Z 08011KT 9999 -RA FEW010 SCT050 BKN090 16/15 Q1010
RJFR 231600Z 07009KT 9999 -RA FEW010 SCT050 BKN080 17/15 Q1011
RJFR 231500Z 06009KT 9999 -RA FEW012 SCT045 BKN070 16/15 Q1012
RJFR 231400Z 06011KT 9999 -RA FEW012 SCT050 BKN070 17/15 Q1012
RJFR 231300Z 06011KT 9999 -RA FEW010 SCT045 BKN090 17/15 Q1013
RJFR 231200Z 06011KT 9999 FEW010 SCT050 BKN070 17/15 Q1013
RJFR 231100Z 07013KT 9999 FEW010 SCT050 BKN090 17/15 Q1013
RJFR 231000Z 06011KT 9999 FEW010 BKN050 BKN070 17/15 Q1013
RJFR 230900Z 07009KT 9999 FEW015 BKN050 BKN100 17/15 Q1013
RJFR 230800Z VRB02KT 9999 FEW020 BKN100 18/15 Q1013
RJFR 230700Z 08008KT CAVOK 18/15 Q1013
RJFR 230600Z 07007KT 9999 FEW045 SCT070 BKN130 19/14 Q1014
RJFR 230500Z 08005KT 9999 FEW050 BKN070 BKN100 19/14 Q1015
RJFR 230400Z 08006KT 9999 FEW050 BKN070 BKN120 18/13 Q1015
RJFR 230300Z VRB03KT CAVOK 17/13 Q1016
RJFR 230200Z VRB02KT 9999 FEW010 SCT070 BKN140 17/14 Q1017
RJFR 230100Z VRB03KT 9999 FEW010 SCT080 BKN140 17/13 Q1017
RJFR 230000Z 13003KT 8000 FEW010 SCT070 BKN120 17/14 Q1017
RJFR 222300Z 13004KT 090V180 5000 BR FEW003 BKN070 16/14 Q1017
RJFR 222240Z VRB02KT 4500 BR FEW002 BKN070 16/15 Q1017 RMK 1ST002 7AC070 A3005
RJFR 222213Z 13004KT 090V180 3200 BR SCT002 BKN003 BKN070 16/15 Q1017 RMK 3ST002 5ST003 7AC070 A3005
RJFR 222200Z 10004KT 060V210 2000 BR SCT002 BKN003 BKN100 16/15 Q1017
RJFR 222145Z 05005KT 3000 BR FEW002 SCT003 BKN100 16/15 Q1017 RMK 1ST002 3ST003 7AC100 A3005
RJFR 222100Z VRB04KT 6000 SCT003 BKN080 16/14 Q1017
RJFR 222000Z 05006KT 9999 FEW030 BKN070 16/14 Q1017
RJFR 221900Z 04004KT 350V070 9999 FEW030 SCT080 16/14 Q1017
RJFR 221800Z 35003KT 9999 FEW030 16/13 Q1017
RJFR 221700Z 36005KT 9999 FEW030 16/14 Q1017
RJFR 221600Z 34004KT 9999 FEW030 17/14 Q1017
RJFR 221500Z 36005KT 9999 FEW030 SCT070 16/14 Q1017
RJFR 221400Z 35005KT 9999 FEW030 17/15 Q1017
RJFR 221300Z 34007KT 9999 FEW030 17/14 Q1017
RJFR 221200Z 34004KT 9999 FEW030 18/13 Q1017
RJFR 221100Z 06006KT 9999 FEW030 18/13 Q1017
RJFR 221000Z 06003KT 9999 FEW030 18/13 Q1017
RJFR 220900Z 07003KT 9999 FEW030 19/13 Q1017
RJFR 220800Z VRB01KT 9999 FEW030 19/13 Q1017
RJFR 220700Z 08003KT 9999 FEW030 20/14 Q1017
RJFR 220600Z 09004KT 010V160 9999 FEW030 20/14 Q1018
RJFR 220500Z VRB03KT 9999 FEW030 19/13 Q1018